createdAt,value
2023-05-12T00:00:18.057Z,102067.75
2023-05-12T00:02:46.995Z,102062.94
2023-05-12T00:05:15.530Z,102072.41
2023-05-12T00:07:43.920Z,102068.81
2023-05-12T00:10:12.781Z,102076.88
2023-05-12T00:12:42.567Z,102071.16
2023-05-12T00:15:13.911Z,102076.56
2023-05-12T00:17:42.493Z,102078.88
2023-05-12T00:20:12.971Z,102077.31
2023-05-12T00:22:42.198Z,102079.03
2023-05-12T00:25:11.876Z,102076.25
2023-05-12T00:27:40.796Z,102078.19
2023-05-12T00:30:12.103Z,102077.91
2023-05-12T00:32:40.568Z,102085.94
2023-05-12T00:35:09.884Z,102095.50
2023-05-12T00:37:38.381Z,102091.59
2023-05-12T00:40:08.086Z,102093.13
2023-05-12T00:42:36.524Z,102090.97
2023-05-12T00:45:06.347Z,102102.84
2023-05-12T00:47:36.513Z,102103.00
2023-05-12T00:50:08.720Z,102110.19
2023-05-12T00:52:37.602Z,102112.41
2023-05-12T00:55:07.324Z,102113.53
2023-05-12T00:57:35.823Z,102113.75
2023-05-12T01:00:05.205Z,102109.06
2023-05-12T01:02:34.139Z,102105.44
2023-05-12T01:05:04.819Z,102113.16
2023-05-12T01:07:34.717Z,102114.53
2023-05-12T01:10:03.523Z,102122.34
2023-05-12T01:12:32.638Z,102121.06
2023-05-12T01:15:01.293Z,102133.59
2023-05-12T01:17:33.900Z,102129.47
2023-05-12T01:20:06.306Z,102125.78
2023-05-12T01:22:35.621Z,102130.41
2023-05-12T01:25:07.090Z,102122.13
2023-05-12T01:27:40.253Z,102137.88
2023-05-12T01:30:11.381Z,102135.94
2023-05-12T01:32:41.556Z,102134.69
2023-05-12T01:35:10.583Z,102141.69
2023-05-12T01:37:38.950Z,102137.31
2023-05-12T01:40:08.672Z,102131.63
2023-05-12T01:42:40.563Z,102128.44
2023-05-12T01:45:10.472Z,102124.31
2023-05-12T01:47:38.898Z,102134.84
2023-05-12T01:50:08.528Z,102137.53
2023-05-12T01:52:37.089Z,102137.81
2023-05-12T01:55:07.470Z,102142.22
2023-05-12T01:57:35.890Z,102143.41
2023-05-12T02:00:06.537Z,102151.41
2023-05-12T02:02:35.119Z,102152.13
2023-05-12T02:05:03.856Z,102155.09
2023-05-12T02:07:32.453Z,102162.84
2023-05-12T02:10:01.472Z,102162.66
2023-05-12T02:12:29.844Z,102166.78
2023-05-12T02:15:00.218Z,102161.44
2023-05-12T02:17:31.532Z,102176.19
2023-05-12T02:19:59.996Z,102176.34
2023-05-12T02:22:28.443Z,102175.47
2023-05-12T02:24:57.004Z,102180.03
2023-05-12T02:27:25.507Z,102183.66
2023-05-12T02:29:54.222Z,102180.94
2023-05-12T02:32:22.773Z,102188.13
2023-05-12T02:34:53.032Z,102187.28
2023-05-12T02:37:21.755Z,102180.03
2023-05-12T02:39:50.325Z,102189.13
2023-05-12T02:42:18.788Z,102190.81
2023-05-12T02:44:48.318Z,102185.56
2023-05-12T02:47:17.139Z,102192.03
2023-05-12T02:49:45.493Z,102195.59
2023-05-12T02:52:15.614Z,102196.50
2023-05-12T02:54:44.128Z,102198.44
2023-05-12T02:57:13.027Z,102194.72
2023-05-12T02:59:41.549Z,102194.59
2023-05-12T03:02:10.639Z,102197.88
2023-05-12T03:04:39.409Z,102197.34
2023-05-12T03:07:08.306Z,102197.63
2023-05-12T03:09:38.494Z,102198.19
2023-05-12T03:12:07.454Z,102198.31
2023-05-12T03:14:35.759Z,102205.44
2023-05-12T03:17:04.765Z,102207.38
2023-05-12T03:19:33.134Z,102210.34
2023-05-12T03:22:02.379Z,102208.31
2023-05-12T03:24:31.584Z,102220.94
2023-05-12T03:27:01.687Z,102219.00
2023-05-12T03:29:30.310Z,102220.59
2023-05-12T03:31:59.335Z,102216.72
2023-05-12T03:34:27.647Z,102214.22
2023-05-12T03:36:56.024Z,102216.19
2023-05-12T03:39:25.136Z,102206.69
2023-05-12T03:41:53.829Z,102222.44
2023-05-12T03:44:23.955Z,102219.81
2023-05-12T03:46:52.751Z,102219.16
2023-05-12T03:49:21.992Z,102222.75
2023-05-12T03:51:50.597Z,102223.84
2023-05-12T03:54:19.069Z,102223.13
2023-05-12T03:56:48.063Z,102227.63
2023-05-12T03:59:16.643Z,102224.63
2023-05-12T04:01:46.935Z,102235.13
2023-05-12T04:04:15.482Z,102238.53
2023-05-12T04:06:44.396Z,102245.50
2023-05-12T04:09:13.001Z,102249.91
2023-05-12T04:11:41.538Z,102255.91
2023-05-12T04:14:10.247Z,102243.69
2023-05-12T04:16:41.370Z,102239.81
2023-05-12T04:19:12.245Z,102256.38
2023-05-12T04:21:40.944Z,102248.38
2023-05-12T04:24:10.675Z,102252.72
2023-05-12T04:26:39.645Z,102258.28
2023-05-12T04:29:08.431Z,102267.13
2023-05-12T04:31:37.112Z,102273.31
2023-05-12T04:34:05.604Z,102275.28
2023-05-12T04:36:35.686Z,102278.69
2023-05-12T04:39:04.814Z,102271.63
2023-05-12T04:41:33.364Z,102275.63
2023-05-12T04:44:01.669Z,102282.31
2023-05-12T04:46:30.643Z,102283.97
2023-05-12T04:48:59.878Z,102282.13
2023-05-12T04:51:28.754Z,102286.78
2023-05-12T04:53:58.812Z,102291.03
2023-05-12T04:56:27.202Z,102284.09
2023-05-12T04:58:56.662Z,102285.75
2023-05-12T05:01:25.269Z,102290.16
2023-05-12T05:03:54.040Z,102298.16
2023-05-12T05:06:22.772Z,102307.09
2023-05-12T05:08:51.206Z,102302.81
2023-05-12T05:11:22.515Z,102298.59
2023-05-12T05:13:50.847Z,102308.09
2023-05-12T05:16:19.327Z,102309.53
2023-05-12T05:18:47.837Z,102309.34
2023-05-12T05:21:16.963Z,102318.84
2023-05-12T05:23:45.686Z,102314.34
2023-05-12T05:26:14.280Z,102322.09
2023-05-12T05:28:44.284Z,102327.97
2023-05-12T05:31:17.770Z,102334.75
2023-05-12T05:33:46.329Z,102344.94
2023-05-12T05:36:15.004Z,102338.72
2023-05-12T05:38:43.876Z,102339.13
2023-05-12T05:41:12.320Z,102346.06
2023-05-12T05:43:40.908Z,102345.00
2023-05-12T05:46:11.343Z,102364.50
2023-05-12T05:48:39.912Z,102359.13
2023-05-12T05:51:08.420Z,102362.94
2023-05-12T05:53:36.809Z,102365.44
2023-05-12T05:56:05.867Z,102375.84
2023-05-12T05:58:34.722Z,102376.72
2023-05-12T06:01:03.823Z,102384.34
2023-05-12T06:03:33.810Z,102396.47
2023-05-12T06:06:02.992Z,102396.16
2023-05-12T06:08:31.821Z,102399.22
2023-05-12T06:11:00.526Z,102397.19
2023-05-12T06:13:29.221Z,102401.22
2023-05-12T06:15:57.962Z,102398.09
2023-05-12T06:18:26.799Z,102403.09
2023-05-12T06:20:57.180Z,102407.03
2023-05-12T06:23:25.627Z,102405.06
2023-05-12T06:25:53.911Z,102408.25
2023-05-12T06:28:22.350Z,102407.91
2023-05-12T06:30:50.999Z,102399.09
2023-05-12T06:33:19.271Z,102403.31
2023-05-12T06:35:48.610Z,102404.69
2023-05-12T06:38:19.449Z,102412.19
2023-05-12T06:40:48.337Z,102407.66
2023-05-12T06:43:16.808Z,102409.00
2023-05-12T06:45:45.330Z,102411.00
2023-05-12T06:48:14.240Z,102414.13
2023-05-12T06:50:43.918Z,102417.19
2023-05-12T06:53:13.261Z,102418.59
2023-05-12T06:55:44.383Z,102418.97
2023-05-12T06:58:15.382Z,102424.59
2023-05-12T07:00:45.191Z,102425.41
2023-05-12T07:03:14.885Z,102432.81
2023-05-12T07:05:45.909Z,102432.28
2023-05-12T07:08:14.792Z,102439.00
2023-05-12T07:10:46.107Z,102436.59
2023-05-12T07:13:19.159Z,102440.50
2023-05-12T07:15:47.564Z,102440.75
2023-05-12T07:18:20.387Z,102440.28
2023-05-12T07:20:49.334Z,102442.69
2023-05-12T07:23:19.275Z,102447.56
2023-05-12T07:26:00.063Z,102440.75
2023-05-12T07:28:28.828Z,102440.34
2023-05-12T07:31:03.030Z,102442.69
2023-05-12T07:33:35.094Z,102446.84
2023-05-12T07:36:04.891Z,102444.84
2023-05-12T07:38:34.589Z,102443.69
2023-05-12T07:41:05.585Z,102441.97
2023-05-12T07:43:34.442Z,102443.72
2023-05-12T07:46:02.842Z,102447.09
2023-05-12T07:48:40.537Z,102454.47
2023-05-12T07:51:09.856Z,102451.66
2023-05-12T07:53:38.424Z,102454.16
2023-05-12T07:56:08.599Z,102448.38
2023-05-12T07:58:37.292Z,102447.03
2023-05-12T08:01:08.211Z,102452.97
2023-05-12T08:03:38.102Z,102454.03
2023-05-12T08:06:07.604Z,102459.34
2023-05-12T08:08:37.036Z,102453.06
2023-05-12T08:11:05.460Z,102456.22
2023-05-12T08:13:35.420Z,102458.03
2023-05-12T08:16:04.014Z,102448.09
2023-05-12T08:18:33.093Z,102450.25
2023-05-12T08:21:01.603Z,102457.69
2023-05-12T08:23:29.820Z,102452.66
2023-05-12T08:25:58.422Z,102455.28
2023-05-12T08:28:57.695Z,102462.56
2023-05-12T08:31:31.926Z,102461.44
2023-05-12T08:34:09.830Z,102458.53
2023-05-12T08:36:39.891Z,102469.31
2023-05-12T08:39:10.435Z,102471.47
2023-05-12T08:41:46.059Z,102467.09
2023-05-12T08:44:14.826Z,102463.69
2023-05-12T08:46:45.307Z,102463.59
2023-05-12T08:49:18.667Z,102470.59
2023-05-12T08:51:57.240Z,102480.44
2023-05-12T08:54:29.664Z,102487.28
2023-05-12T08:59:31.228Z,102488.47
2023-05-12T09:02:04.645Z,102479.72
2023-05-12T09:04:34.165Z,102484.28
2023-05-12T09:07:02.845Z,102489.31
2023-05-12T09:09:34.190Z,102488.53
2023-05-12T09:12:04.668Z,102497.09
2023-05-12T09:14:37.980Z,102492.56
2023-05-12T09:17:08.941Z,102490.44
2023-05-12T09:19:37.776Z,102503.34
2023-05-12T09:22:08.118Z,102493.41
2023-05-12T09:24:37.897Z,102492.72
2023-05-12T09:27:07.328Z,102484.00
2023-05-12T09:29:42.506Z,102492.72
2023-05-12T09:32:18.447Z,102496.31
2023-05-12T09:34:47.040Z,102486.16
2023-05-12T09:37:16.047Z,102489.09
2023-05-12T09:39:46.492Z,102482.59
2023-05-12T09:42:16.489Z,102478.84
2023-05-12T09:44:47.439Z,102488.34
2023-05-12T09:47:20.251Z,102491.94
2023-05-12T09:49:55.381Z,102489.28
2023-05-12T09:52:24.089Z,102494.66
2023-05-12T09:54:54.700Z,102487.66
2023-05-12T09:57:24.527Z,102499.72
2023-05-12T09:59:55.156Z,102500.69
2023-05-12T10:02:59.932Z,102499.88
2023-05-12T10:05:30.337Z,102497.25
2023-05-12T10:08:02.033Z,102499.53
2023-05-12T10:10:30.821Z,102496.03
2023-05-12T10:13:03.022Z,102495.50
2023-05-12T10:15:32.778Z,102502.94
2023-05-12T10:18:03.297Z,102499.63
2023-05-12T10:20:33.908Z,102500.00
2023-05-12T10:23:03.453Z,102497.97
2023-05-12T10:25:35.127Z,102498.69
2023-05-12T10:28:05.207Z,102495.91
2023-05-12T10:30:34.989Z,102484.41
2023-05-12T10:33:05.587Z,102489.03
2023-05-12T10:35:35.237Z,102489.31
2023-05-12T10:38:07.311Z,102500.69
2023-05-12T10:40:36.430Z,102496.50
2023-05-12T10:43:05.223Z,102505.78
2023-05-12T10:45:38.744Z,102510.34
2023-05-12T10:48:10.444Z,102509.63
2023-05-12T10:50:39.036Z,102518.47
2023-05-12T10:53:13.003Z,102508.13
2023-05-12T10:55:50.505Z,102504.47
2023-05-12T10:58:19.495Z,102505.72
2023-05-12T11:00:51.946Z,102505.06
2023-05-12T11:03:27.673Z,102500.66
2023-05-12T11:06:02.915Z,102496.31
2023-05-12T11:08:35.917Z,102492.41
2023-05-12T11:11:06.213Z,102493.88
2023-05-12T11:13:37.757Z,102495.19
2023-05-12T11:16:06.891Z,102490.16
2023-05-12T11:18:37.241Z,102496.13
2023-05-12T11:21:12.345Z,102496.31
2023-05-12T11:24:51.862Z,102491.56
2023-05-12T11:27:23.380Z,102495.28
2023-05-12T11:29:59.112Z,102492.75
2023-05-12T11:32:27.847Z,102487.81
2023-05-12T11:34:58.767Z,102472.31
2023-05-12T11:37:27.925Z,102463.16
2023-05-12T11:39:56.628Z,102466.56
2023-05-12T11:42:25.925Z,102473.94
2023-05-12T11:44:55.810Z,102467.44
2023-05-12T11:47:24.091Z,102473.19
2023-05-12T11:49:54.826Z,102470.78
2023-05-12T11:52:26.134Z,102462.31
2023-05-12T11:55:00.407Z,102464.34
2023-05-12T11:57:30.333Z,102460.84
2023-05-12T12:00:00.834Z,102466.16
2023-05-12T12:02:30.386Z,102465.47
2023-05-12T12:04:59.278Z,102459.97
2023-05-12T12:07:34.128Z,102450.16
2023-05-12T12:10:13.715Z,102460.63
2023-05-12T12:12:42.175Z,102448.19
2023-05-12T12:15:11.634Z,102451.41
2023-05-12T12:17:40.884Z,102459.44
2023-05-12T12:20:10.962Z,102455.59
2023-05-12T12:22:41.203Z,102459.16
2023-05-12T12:25:11.294Z,102470.53
2023-05-12T12:27:39.922Z,102464.94
2023-05-12T12:30:10.415Z,102465.44
2023-05-12T12:32:39.202Z,102454.28
2023-05-12T12:35:09.419Z,102457.66
2023-05-12T12:37:37.938Z,102456.47
2023-05-12T12:40:10.418Z,102459.72
2023-05-12T12:42:41.484Z,102460.00
2023-05-12T12:45:11.107Z,102464.97
2023-05-12T12:47:40.258Z,102462.72
2023-05-12T12:50:10.891Z,102467.97
2023-05-12T12:52:39.605Z,102467.47
2023-05-12T12:55:10.867Z,102461.84
2023-05-12T12:57:39.816Z,102464.09
2023-05-12T13:00:10.415Z,102462.41
2023-05-12T13:02:39.645Z,102468.81
2023-05-12T13:05:09.705Z,102473.81
2023-05-12T13:07:39.342Z,102460.88
2023-05-12T13:10:10.575Z,102471.09
2023-05-12T13:12:40.180Z,102468.59
2023-05-12T13:15:10.923Z,102462.69
2023-05-12T13:17:39.745Z,102469.28
2023-05-12T13:20:09.531Z,102454.78
2023-05-12T13:22:38.177Z,102454.13
2023-05-12T13:25:08.135Z,102459.53
2023-05-12T13:27:38.680Z,102463.72
2023-05-12T13:30:10.088Z,102450.06
2023-05-12T13:32:40.276Z,102452.59
2023-05-12T13:35:09.156Z,102462.72
2023-05-12T13:37:37.968Z,102457.94
2023-05-12T13:40:08.198Z,102460.78
2023-05-12T13:42:38.764Z,102449.78
2023-05-12T13:45:09.684Z,102457.22
2023-05-12T13:47:38.392Z,102449.94
2023-05-12T13:50:08.395Z,102449.81
2023-05-12T13:52:37.657Z,102444.34
2023-05-12T13:55:07.177Z,102458.06
2023-05-12T13:57:35.978Z,102445.19
2023-05-12T14:00:08.773Z,102451.75
2023-05-12T14:02:37.130Z,102438.22
2023-05-12T14:05:07.122Z,102440.03
2023-05-12T14:07:36.186Z,102441.03
2023-05-12T14:10:04.841Z,102433.59
2023-05-12T14:12:33.221Z,102438.56
2023-05-12T14:15:11.172Z,102438.50
2023-05-12T14:17:52.054Z,102436.78
2023-05-12T14:20:20.944Z,102433.75
2023-05-12T14:22:49.465Z,102435.44
2023-05-12T14:25:18.083Z,102433.81
2023-05-12T14:27:46.694Z,102430.59
2023-05-12T14:30:16.782Z,102434.75
2023-05-12T14:32:46.421Z,102435.38
2023-05-12T14:35:16.585Z,102435.38
2023-05-12T14:37:45.923Z,102431.97
2023-05-12T14:40:15.550Z,102426.06
2023-05-12T14:42:44.068Z,102432.63
2023-05-12T14:45:14.515Z,102435.84
2023-05-12T14:47:43.386Z,102434.03
2023-05-12T14:50:13.891Z,102432.00
2023-05-12T14:52:43.834Z,102435.63
2023-05-12T14:55:13.812Z,102438.56
2023-05-12T14:57:43.232Z,102439.56
2023-05-12T15:00:13.963Z,102438.00
2023-05-12T15:02:44.383Z,102439.16
2023-05-12T15:05:15.428Z,102442.66
2023-05-12T15:07:45.277Z,102438.13
2023-05-12T15:10:13.859Z,102428.63
2023-05-12T15:12:42.682Z,102442.31
2023-05-12T15:15:12.947Z,102438.47
2023-05-12T15:17:41.723Z,102443.34
2023-05-12T15:20:11.382Z,102432.28
2023-05-12T15:22:40.025Z,102439.19
2023-05-12T15:25:12.051Z,102435.31
2023-05-12T15:27:40.848Z,102433.84
2023-05-12T15:30:10.890Z,102426.53
2023-05-12T15:32:41.349Z,102430.34
2023-05-12T15:35:10.955Z,102422.81
2023-05-12T15:37:39.475Z,102428.13
2023-05-12T15:40:13.272Z,102423.53
2023-05-12T15:42:42.220Z,102412.75
2023-05-12T15:45:11.557Z,102415.84
2023-05-12T15:47:40.189Z,102420.13
2023-05-12T15:50:11.665Z,102416.78
2023-05-12T15:52:40.152Z,102417.59
2023-05-12T15:55:10.353Z,102404.25
2023-05-12T15:57:38.727Z,102412.63
2023-05-12T16:00:09.262Z,102404.56
2023-05-12T16:02:37.763Z,102405.78
2023-05-12T16:05:10.003Z,102410.31
2023-05-12T16:07:39.059Z,102408.00
2023-05-12T16:10:10.537Z,102406.78
2023-05-12T16:12:39.157Z,102407.53
2023-05-12T16:15:08.434Z,102404.34
2023-05-12T16:17:37.247Z,102404.09
2023-05-12T16:20:08.314Z,102406.88
2023-05-12T16:22:36.858Z,102399.38
2023-05-12T16:25:06.755Z,102402.50
2023-05-12T16:27:36.756Z,102403.59
2023-05-12T16:30:06.265Z,102404.25
2023-05-12T16:32:35.074Z,102392.75
2023-05-12T16:35:03.829Z,102391.00
2023-05-12T16:37:35.027Z,102396.34
2023-05-12T16:40:03.803Z,102389.16
2023-05-12T16:42:32.310Z,102384.69
2023-05-12T16:45:02.466Z,102387.53
2023-05-12T16:47:30.905Z,102381.28
2023-05-12T16:49:59.702Z,102386.75
2023-05-12T16:52:29.985Z,102386.16
2023-05-12T16:54:58.629Z,102389.03
2023-05-12T16:57:27.225Z,102383.81
2023-05-12T16:59:55.522Z,102394.03
2023-05-12T17:02:25.788Z,102393.41
2023-05-12T17:04:54.394Z,102387.84
2023-05-12T17:07:23.409Z,102379.28
2023-05-12T17:09:52.142Z,102387.31
2023-05-12T17:12:20.920Z,102377.59
2023-05-12T17:14:59.354Z,102383.84
2023-05-12T17:17:36.918Z,102385.81
2023-05-12T17:20:06.226Z,102376.41
2023-05-12T17:22:43.551Z,102385.66
2023-05-12T17:25:15.871Z,102386.31
2023-05-12T17:27:44.575Z,102384.13
2023-05-12T17:30:13.713Z,102387.91
2023-05-12T17:32:44.841Z,102381.31
2023-05-12T17:35:13.734Z,102378.00
2023-05-12T17:37:42.618Z,102376.44
2023-05-12T17:40:16.898Z,102379.19
2023-05-12T17:42:45.608Z,102381.56
2023-05-12T17:45:15.224Z,102383.63
2023-05-12T17:47:46.482Z,102382.09
2023-05-12T17:50:16.567Z,102389.22
2023-05-12T17:52:45.530Z,102386.69
2023-05-12T17:55:14.198Z,102384.25
2023-05-12T17:57:42.711Z,102379.84
2023-05-12T18:00:13.323Z,102378.13
2023-05-12T18:02:42.645Z,102379.94
2023-05-12T18:05:12.800Z,102387.69
2023-05-12T18:07:41.332Z,102385.13
2023-05-12T18:10:10.431Z,102386.84
2023-05-12T18:12:39.602Z,102389.00
2023-05-12T18:15:09.551Z,102388.78
2023-05-12T18:17:38.380Z,102403.06
2023-05-12T18:20:08.948Z,102391.16
2023-05-12T18:22:39.231Z,102395.94
2023-05-12T18:25:10.025Z,102402.91
2023-05-12T18:27:38.504Z,102398.56
2023-05-12T18:30:08.994Z,102408.97
2023-05-12T18:32:38.246Z,102387.81
2023-05-12T18:35:08.693Z,102399.00
2023-05-12T18:37:38.846Z,102406.78
2023-05-12T18:40:08.692Z,102403.25
2023-05-12T18:42:37.566Z,102409.16
2023-05-12T18:45:07.115Z,102404.56
2023-05-12T18:47:35.491Z,102407.44
2023-05-12T18:50:05.811Z,102411.16
2023-05-12T18:52:34.287Z,102414.31
2023-05-12T18:55:04.395Z,102417.09
2023-05-12T18:57:33.296Z,102411.25
2023-05-12T19:00:01.818Z,102412.34
2023-05-12T19:02:31.771Z,102415.41
2023-05-12T19:05:00.400Z,102412.41
2023-05-12T19:07:28.894Z,102422.75
2023-05-12T19:09:57.579Z,102423.31
2023-05-12T19:12:27.787Z,102419.19
2023-05-12T19:14:56.669Z,102426.31
2023-05-12T19:17:25.385Z,102424.56
2023-05-12T19:19:53.771Z,102424.66
2023-05-12T19:22:23.712Z,102437.63
2023-05-12T19:24:52.635Z,102438.38
2023-05-12T19:27:21.208Z,102440.47
2023-05-12T19:29:51.316Z,102440.22
2023-05-12T19:32:19.973Z,102453.75
2023-05-12T19:34:51.235Z,102453.97
2023-05-12T19:37:20.773Z,102465.41
2023-05-12T19:39:50.586Z,102467.22
2023-05-12T19:42:19.053Z,102475.28
2023-05-12T19:44:47.505Z,102468.19
2023-05-12T19:47:19.385Z,102469.13
2023-05-12T19:49:48.384Z,102473.72
2023-05-12T19:52:16.854Z,102477.97
2023-05-12T19:54:45.261Z,102478.97
2023-05-12T19:57:13.778Z,102482.09
2023-05-12T19:59:43.329Z,102492.91
2023-05-12T20:02:14.998Z,102497.25
2023-05-12T20:04:45.517Z,102491.53
2023-05-12T20:07:14.199Z,102503.03
2023-05-12T20:09:42.555Z,102502.81
2023-05-12T20:12:11.444Z,102503.34
2023-05-12T20:14:40.005Z,102516.84
2023-05-12T20:17:09.617Z,102514.72
2023-05-12T20:19:38.364Z,102514.19
2023-05-12T20:22:08.301Z,102516.00
2023-05-12T20:24:39.404Z,102527.34
2023-05-12T20:27:08.002Z,102529.38
2023-05-12T20:29:36.402Z,102531.59
2023-05-12T20:32:05.192Z,102533.59
2023-05-12T20:34:33.538Z,102534.03
2023-05-12T20:37:02.510Z,102544.41
2023-05-12T20:39:35.267Z,102544.81
2023-05-12T20:42:04.193Z,102545.09
2023-05-12T20:44:32.578Z,102546.50
2023-05-12T20:47:02.469Z,102549.25
2023-05-12T20:49:33.179Z,102560.09
2023-05-12T20:52:03.682Z,102556.66
2023-05-12T20:54:32.354Z,102564.81
2023-05-12T20:57:02.607Z,102558.56
2023-05-12T20:59:31.330Z,102565.78
2023-05-12T21:02:00.112Z,102567.47
2023-05-12T21:04:28.920Z,102573.66
2023-05-12T21:06:58.916Z,102558.66
2023-05-12T21:09:27.338Z,102558.19
2023-05-12T21:11:55.790Z,102552.88
2023-05-12T21:14:36.449Z,102550.41
2023-05-12T21:17:10.973Z,102543.28
2023-05-12T21:19:44.937Z,102548.25
2023-05-12T21:22:13.582Z,102539.94
2023-05-12T21:24:42.402Z,102537.97
2023-05-12T21:27:11.825Z,102537.56
2023-05-12T21:29:41.805Z,102539.66
2023-05-12T21:32:13.418Z,102544.22
2023-05-12T21:34:43.009Z,102539.66
2023-05-12T21:37:18.106Z,102531.34
2023-05-12T21:39:51.578Z,102528.00
2023-05-12T21:42:20.066Z,102534.34
2023-05-12T21:44:51.551Z,102528.00
2023-05-12T21:47:20.329Z,102532.94
2023-05-12T21:49:48.757Z,102541.19
2023-05-12T21:52:21.212Z,102536.81
2023-05-12T21:54:49.947Z,102539.44
2023-05-12T21:57:18.542Z,102534.75
2023-05-12T21:59:47.087Z,102540.06
2023-05-12T22:02:16.947Z,102531.34
2023-05-12T22:04:45.576Z,102536.50
2023-05-12T22:07:13.951Z,102542.28
2023-05-12T22:09:42.330Z,102533.00
2023-05-12T22:12:15.390Z,102543.78
2023-05-12T22:14:44.306Z,102536.94
2023-05-12T22:17:14.352Z,102531.16
2023-05-12T22:19:44.842Z,102542.97
2023-05-12T22:22:13.391Z,102548.38
2023-05-12T22:24:41.761Z,102560.16
2023-05-12T22:27:10.476Z,102553.84
2023-05-12T22:29:39.119Z,102548.78
2023-05-12T22:32:08.238Z,102556.50
2023-05-12T22:34:36.828Z,102553.75
2023-05-12T22:37:07.126Z,102563.78
2023-05-12T22:39:36.810Z,102567.66
2023-05-12T22:42:06.594Z,102555.34
2023-05-12T22:44:35.006Z,102557.56
2023-05-12T22:47:05.464Z,102559.69
2023-05-12T22:49:34.322Z,102561.16
2023-05-12T22:52:02.704Z,102560.38
2023-05-12T22:54:32.831Z,102567.91
2023-05-12T22:57:01.311Z,102557.03
2023-05-12T22:59:30.018Z,102560.00
2023-05-12T23:01:58.331Z,102555.16
2023-05-12T23:04:26.936Z,102564.34
2023-05-12T23:06:55.341Z,102558.78
2023-05-12T23:09:23.854Z,102550.72
2023-05-12T23:11:53.843Z,102554.63
2023-05-12T23:14:22.489Z,102549.59
2023-05-12T23:16:51.152Z,102554.31
2023-05-12T23:19:19.599Z,102560.56
2023-05-12T23:21:48.087Z,102565.50
2023-05-12T23:24:16.566Z,102562.84
2023-05-12T23:26:45.065Z,102560.72
2023-05-12T23:29:14.875Z,102567.38
2023-05-12T23:31:45.011Z,102565.06
2023-05-12T23:34:13.944Z,102556.00
2023-05-12T23:36:42.602Z,102556.66
2023-05-12T23:39:11.209Z,102567.63
2023-05-12T23:41:39.688Z,102568.72
2023-05-12T23:44:08.155Z,102570.16
2023-05-12T23:46:41.524Z,102570.91
2023-05-12T23:49:10.105Z,102577.97
2023-05-12T23:51:38.764Z,102573.41
2023-05-12T23:54:07.503Z,102574.59
2023-05-12T23:56:36.106Z,102578.25
2023-05-12T23:59:04.606Z,102571.88
